Portada
METAR-TAF:

METAR-TAF

Aeropuertos :

Chlef, Argelia

latitud: 36-13N, longitud: 001-20E, altitud: 143 m

Observación

El informe se hizo hace 51 minutos, a las 18:00 UTC
Viento 5 kt del norte-noreste
Temperatura 26°C
Humedad 16%
Presión 1019 hPa
Visibilidad 10 km o más
sin nubes por debajo de 1500 m y sin presencia de cumulonimbus.

METAR: DAOI 201800Z 02005KT CAVOK 26/M02 Q1019

Hora: 19:51 (18:51 UTC)

Pronóstico

El informe se hizo hace 1 hora y 51 minutos, a las 17:00 UTC
Pronóstico válido del 20 a las 18 UTC al 21 a las 18 UTC
Viento 2 kt con dirección variable
Visibilidad 10 km o más
sin nubes por debajo de 1500 m y sin presencia de cumulonimbus.
Evolucionando progresivamente
del 21 a las 03 UTC al 21 a las 05 UTC
Viento 2 kt con dirección variable
Evolucionando progresivamente
del 21 a las 12 UTC al 21 a las 15 UTC
Viento 12 kt del oeste-noroeste

TAF: DAOI 201700Z 2018/2118 VRB02KT CAVOK BECMG 2103/2105 23010KT 2106/2109 VRB02KT BECMG 2112/2115 30012KT

Observaciones y pronósticos meteorológicos de más de 4000 aeropuertos (mensajes METAR y TAF).

Los puntos amarillos y rojos representan las estaciones disponibles.

Ponga el ratón en el punto deseado para ver el nombre de la estación.

Haga clic para ver las observaciones y los pronósticos meteorológicos.

Para cambiar el mapa : haga clic en los botones verdes con una cruz de color negro para hacer un zoom, en el botón verde con un guión para alejar o en las flechas verdes para mapas adyacentes.


METAR-TAF: